createdAt,value
2022-08-25T00:02:07.552Z,21.02
2022-08-25T00:04:38.050Z,20.99
2022-08-25T00:07:06.744Z,20.99
2022-08-25T00:09:35.329Z,20.96
2022-08-25T00:12:04.987Z,20.95
2022-08-25T00:14:37.413Z,20.95
2022-08-25T00:17:06.927Z,20.98
2022-08-25T00:19:37.930Z,20.99
2022-08-25T00:22:07.738Z,21.06
2022-08-25T00:24:36.067Z,21.06
2022-08-25T00:27:04.598Z,21.12
2022-08-25T00:29:34.024Z,21.16
2022-08-25T00:32:01.868Z,21.27
2022-08-25T00:34:35.493Z,21.33
2022-08-25T00:37:07.327Z,21.42
2022-08-25T00:39:35.197Z,21.54
2022-08-25T00:42:04.298Z,21.51
2022-08-25T00:44:35.645Z,21.61
2022-08-25T00:47:05.243Z,21.61
2022-08-25T00:49:42.054Z,21.57
2022-08-25T00:52:16.554Z,21.56
2022-08-25T00:55:06.230Z,21.54
2022-08-25T00:58:17.008Z,21.48
2022-08-25T01:00:49.498Z,21.43
2022-08-25T01:03:19.201Z,21.49
2022-08-25T01:05:48.406Z,21.46
2022-08-25T01:08:19.605Z,21.52
2022-08-25T01:10:49.323Z,21.67
2022-08-25T01:13:21.378Z,21.57
2022-08-25T01:15:52.941Z,21.56
2022-08-25T01:18:21.878Z,21.54
2022-08-25T01:20:57.948Z,21.70
2022-08-25T01:23:27.129Z,21.57
2022-08-25T01:26:21.134Z,21.78
2022-08-25T01:29:15.501Z,21.84
2022-08-25T01:31:43.518Z,21.86
2022-08-25T01:34:12.465Z,21.72
2022-08-25T01:36:42.163Z,21.77
2022-08-25T01:39:11.667Z,21.87
2022-08-25T01:42:05.497Z,21.75
2022-08-25T01:44:35.976Z,21.80
2022-08-25T01:47:06.085Z,21.78
2022-08-25T01:49:34.850Z,21.74
2022-08-25T01:52:20.195Z,21.89
2022-08-25T01:54:49.599Z,21.85
2022-08-25T01:57:17.606Z,21.78
2022-08-25T01:59:45.815Z,21.77
2022-08-25T02:02:13.890Z,21.65
2022-08-25T02:04:44.429Z,21.77
2022-08-25T02:07:12.298Z,21.82
2022-08-25T02:09:40.428Z,21.88
2022-08-25T02:12:12.305Z,21.75
2022-08-25T02:14:40.058Z,21.71
2022-08-25T02:17:09.829Z,21.70
2022-08-25T02:19:37.722Z,21.63
2022-08-25T02:22:05.917Z,21.61
2022-08-25T02:24:34.941Z,21.51
2022-08-25T02:27:04.075Z,21.46
2022-08-25T02:29:32.437Z,21.42
2022-08-25T02:32:00.536Z,21.25
2022-08-25T02:34:28.344Z,21.17
2022-08-25T02:36:56.034Z,21.18
2022-08-25T02:39:23.873Z,21.09
2022-08-25T02:41:51.610Z,21.03
2022-08-25T02:44:19.304Z,20.95
2022-08-25T02:46:47.196Z,20.96
2022-08-25T02:49:14.822Z,20.89
2022-08-25T02:51:42.967Z,20.91
2022-08-25T02:54:11.130Z,20.97
2022-08-25T02:56:38.878Z,20.96
2022-08-25T02:59:06.953Z,20.96
2022-08-25T03:01:34.910Z,21.07
2022-08-25T03:04:02.987Z,21.04
2022-08-25T03:06:31.322Z,20.99
2022-08-25T03:08:59.485Z,20.99
2022-08-25T03:11:27.164Z,20.96
2022-08-25T03:13:56.441Z,20.95
2022-08-25T03:16:27.634Z,20.99
2022-08-25T03:18:56.289Z,21.07
2022-08-25T03:21:25.838Z,20.99
2022-08-25T03:23:53.567Z,20.99
2022-08-25T03:26:40.249Z,20.95
2022-08-25T03:29:08.631Z,20.88
2022-08-25T03:31:36.816Z,20.93
2022-08-25T03:34:05.448Z,21.01
2022-08-25T03:36:33.407Z,20.91
2022-08-25T03:39:01.130Z,20.98
2022-08-25T03:41:32.517Z,20.96
2022-08-25T03:44:02.022Z,20.92
2022-08-25T03:46:34.358Z,21.05
2022-08-25T03:49:04.532Z,21.03
2022-08-25T03:51:36.172Z,20.98
2022-08-25T03:54:05.035Z,21.02
2022-08-25T03:56:33.053Z,21.07
2022-08-25T03:59:01.089Z,21.10
2022-08-25T04:01:29.251Z,21.26
2022-08-25T04:03:57.114Z,21.23
2022-08-25T04:06:24.794Z,21.28
2022-08-25T04:08:52.911Z,21.34
2022-08-25T04:11:23.041Z,21.34
2022-08-25T04:13:51.948Z,21.41
2022-08-25T04:16:26.598Z,21.41
2022-08-25T04:18:56.115Z,21.47
2022-08-25T04:21:25.433Z,21.58
2022-08-25T04:23:55.278Z,21.58
2022-08-25T04:26:35.385Z,21.61
2022-08-25T04:29:05.826Z,21.68
2022-08-25T04:31:34.229Z,21.75
2022-08-25T04:34:14.766Z,21.79
2022-08-25T04:36:55.535Z,21.93
2022-08-25T04:39:23.284Z,22.03
2022-08-25T04:41:51.473Z,22.09
2022-08-25T04:44:19.341Z,22.14
2022-08-25T04:46:47.234Z,22.18
2022-08-25T04:49:15.112Z,22.36
2022-08-25T04:51:43.477Z,22.59
2022-08-25T04:54:16.969Z,22.48
2022-08-25T04:56:45.398Z,22.55
2022-08-25T04:59:14.921Z,22.68
2022-08-25T05:01:43.745Z,22.70
2022-08-25T05:04:28.230Z,22.61
2022-08-25T05:06:58.310Z,22.69
2022-08-25T05:09:27.457Z,22.88
2022-08-25T05:11:55.882Z,22.87
2022-08-25T05:14:26.145Z,23.05
2022-08-25T05:16:56.326Z,23.21
2022-08-25T05:19:24.629Z,23.32
2022-08-25T05:21:52.733Z,23.31
2022-08-25T05:24:22.190Z,23.33
2022-08-25T05:26:50.447Z,23.33
2022-08-25T05:29:18.376Z,23.40
2022-08-25T05:31:50.405Z,23.64
2022-08-25T05:34:19.723Z,23.64
2022-08-25T05:36:48.735Z,23.69
2022-08-25T05:39:16.631Z,23.78
2022-08-25T05:41:44.422Z,23.76
2022-08-25T05:44:12.924Z,23.86
2022-08-25T05:46:40.827Z,23.86
2022-08-25T05:49:08.473Z,23.96
2022-08-25T05:51:36.390Z,24.07
2022-08-25T05:54:04.093Z,24.11
2022-08-25T05:56:32.474Z,24.18
2022-08-25T05:59:00.354Z,24.24
2022-08-25T06:01:48.113Z,24.30
2022-08-25T06:04:20.363Z,24.46
2022-08-25T06:06:48.833Z,24.68
2022-08-25T06:09:16.610Z,24.69
2022-08-25T06:11:44.893Z,24.84
2022-08-25T06:14:12.568Z,24.88
2022-08-25T06:16:40.903Z,25.08
2022-08-25T06:19:10.501Z,25.34
2022-08-25T06:21:42.072Z,25.44
2022-08-25T06:24:15.172Z,25.51
2022-08-25T06:26:44.231Z,25.64
2022-08-25T06:29:14.172Z,25.77
2022-08-25T06:31:42.853Z,26.02
2022-08-25T06:34:11.360Z,26.30
2022-08-25T06:36:39.696Z,26.36
2022-08-25T06:39:07.725Z,26.46
2022-08-25T06:41:38.978Z,26.64
2022-08-25T06:44:07.101Z,26.77
2022-08-25T06:46:36.530Z,26.82
2022-08-25T06:49:06.927Z,26.93
2022-08-25T06:51:38.158Z,27.01
2022-08-25T06:54:10.223Z,27.21
2022-08-25T06:56:40.045Z,27.50
2022-08-25T06:59:09.076Z,27.50
2022-08-25T07:01:37.866Z,27.59
2022-08-25T07:04:11.738Z,27.65
2022-08-25T07:06:42.845Z,27.74
2022-08-25T07:09:12.696Z,27.85
2022-08-25T07:11:42.166Z,27.96
2022-08-25T07:14:12.426Z,28.12
2022-08-25T07:16:46.011Z,28.26
2022-08-25T07:19:20.706Z,28.40
2022-08-25T07:21:52.434Z,28.54
2022-08-25T07:24:20.800Z,28.80
2022-08-25T07:26:49.051Z,28.96
2022-08-25T07:29:31.976Z,29.27
2022-08-25T07:32:05.216Z,29.58
2022-08-25T07:34:52.799Z,29.74
2022-08-25T07:37:47.523Z,30.03
2022-08-25T07:40:17.598Z,30.47
2022-08-25T07:42:46.078Z,31.32
2022-08-25T07:45:15.511Z,32.78
2022-08-25T07:47:45.166Z,34.15
2022-08-25T07:50:14.644Z,35.39
2022-08-25T07:52:42.849Z,36.79
2022-08-25T07:55:11.342Z,37.45
2022-08-25T07:57:42.498Z,38.81
2022-08-25T08:00:13.813Z,40.15
2022-08-25T08:02:42.761Z,41.67
2022-08-25T08:05:12.523Z,42.78
2022-08-25T08:07:43.163Z,43.52
2022-08-25T08:10:48.190Z,43.89
2022-08-25T08:13:03.286Z,44.88
2022-08-25T08:15:31.120Z,45.74
2022-08-25T08:18:00.406Z,45.96
2022-08-25T08:20:29.096Z,46.00
2022-08-25T08:22:56.977Z,46.14
2022-08-25T08:25:26.631Z,46.06
2022-08-25T08:27:56.363Z,46.30
2022-08-25T08:30:26.165Z,46.35
2022-08-25T08:33:11.490Z,46.61
2022-08-25T08:35:44.005Z,46.70
2022-08-25T08:38:18.420Z,47.36
2022-08-25T08:41:40.082Z,47.72
2022-08-25T08:44:42.403Z,47.72
2022-08-25T08:47:34.881Z,47.60
2022-08-25T08:50:28.013Z,47.83
2022-08-25T08:53:15.157Z,-143.58
2022-08-25T08:56:12.470Z,-143.58
2022-08-25T08:58:43.423Z,-143.58
2022-08-25T09:01:24.583Z,-143.58
2022-08-25T09:04:04.950Z,-143.58
2022-08-25T09:06:45.195Z,-143.58
2022-08-25T09:09:20.396Z,-143.58
2022-08-25T09:11:51.095Z,-143.58
2022-08-25T09:14:41.991Z,-143.58
2022-08-25T09:17:17.308Z,-143.58
2022-08-25T09:19:54.253Z,48.36
2022-08-25T09:22:43.106Z,46.84
2022-08-25T09:28:41.812Z,46.51
2022-08-25T09:31:40.390Z,46.08
2022-08-25T09:34:15.608Z,45.66
2022-08-25T09:36:45.403Z,-143.58
2022-08-25T09:39:12.999Z,-143.58
2022-08-25T09:41:51.545Z,-143.58
2022-08-25T09:44:45.967Z,-143.58
2022-08-25T09:47:28.003Z,-143.58
2022-08-25T09:50:01.625Z,-143.58
2022-08-25T09:52:41.827Z,-143.58
2022-08-25T09:55:13.593Z,-143.58
2022-08-25T09:57:53.177Z,-143.58
2022-08-25T10:00:23.573Z,-143.58
2022-08-25T10:03:22.639Z,-143.58
2022-08-25T10:06:13.658Z,-143.58
2022-08-25T10:08:44.383Z,-143.58
2022-08-25T10:11:29.044Z,44.28
2022-08-25T10:14:14.184Z,43.91
2022-08-25T10:16:42.544Z,43.92
2022-08-25T10:19:35.130Z,42.80
2022-08-25T10:22:32.218Z,41.30
2022-08-25T10:25:01.491Z,39.89
2022-08-25T10:27:53.794Z,38.68
2022-08-25T10:30:36.236Z,37.67
2022-08-25T10:33:22.251Z,37.01
2022-08-25T10:36:11.631Z,36.35
2022-08-25T10:39:01.492Z,36.10
2022-08-25T10:41:47.565Z,35.79
2022-08-25T10:44:51.674Z,35.40
2022-08-25T10:47:37.850Z,35.25
2022-08-25T10:50:27.230Z,34.86
2022-08-25T10:53:28.148Z,34.83
2022-08-25T10:56:17.284Z,34.64
2022-08-25T10:58:54.425Z,34.52
2022-08-25T11:01:38.967Z,34.42
2022-08-25T11:04:15.029Z,34.26
2022-08-25T11:06:57.179Z,34.12
2022-08-25T11:09:36.471Z,34.08
2022-08-25T11:12:16.939Z,33.85
2022-08-25T11:14:56.295Z,33.95
2022-08-25T11:17:27.201Z,34.07
2022-08-25T11:20:00.903Z,33.90
2022-08-25T11:22:42.376Z,33.90
2022-08-25T11:25:49.314Z,33.88
2022-08-25T11:28:30.658Z,33.76
2022-08-25T11:31:00.830Z,33.70
2022-08-25T11:33:30.637Z,33.77
2022-08-25T11:36:11.375Z,33.82
2022-08-25T11:39:04.953Z,33.80
2022-08-25T11:41:35.917Z,33.96
2022-08-25T11:44:25.530Z,33.89
2022-08-25T11:47:06.496Z,33.71
2022-08-25T11:49:54.653Z,33.84
2022-08-25T11:52:34.700Z,33.62
2022-08-25T11:55:17.921Z,33.57
2022-08-25T11:57:53.999Z,33.64
2022-08-25T12:00:43.589Z,33.68
2022-08-25T12:03:34.651Z,33.63
2022-08-25T12:06:29.135Z,33.74
2022-08-25T12:09:03.678Z,33.68
2022-08-25T12:11:48.508Z,33.77
2022-08-25T12:14:20.473Z,33.66
2022-08-25T12:17:00.251Z,33.72
2022-08-25T12:19:38.124Z,33.65
2022-08-25T12:22:08.931Z,33.66
2022-08-25T12:24:47.863Z,33.75
2022-08-25T12:27:41.510Z,33.75
2022-08-25T12:30:18.674Z,33.81
2022-08-25T12:33:01.219Z,33.75
2022-08-25T12:35:59.311Z,33.79
2022-08-25T12:38:30.423Z,33.77
2022-08-25T12:41:24.335Z,33.54
2022-08-25T12:44:08.870Z,33.60
2022-08-25T12:46:39.404Z,33.50
2022-08-25T12:49:29.973Z,33.55
2022-08-25T12:52:22.459Z,33.52
2022-08-25T12:55:03.582Z,33.50
2022-08-25T12:57:45.936Z,33.56
2022-08-25T13:00:45.757Z,33.48
2022-08-25T13:03:45.212Z,33.57
2022-08-25T13:06:25.873Z,33.69
2022-08-25T13:08:53.551Z,33.56
2022-08-25T13:12:03.001Z,33.49
2022-08-25T13:14:37.762Z,33.58
2022-08-25T13:17:06.830Z,33.54
2022-08-25T13:19:37.937Z,33.54
2022-08-25T13:22:16.017Z,33.44
2022-08-25T13:24:50.656Z,33.30
2022-08-25T13:27:37.480Z,33.35
2022-08-25T13:30:06.309Z,33.43
2022-08-25T13:32:38.898Z,33.24
2022-08-25T13:35:32.399Z,33.23
2022-08-25T13:38:20.961Z,33.22
2022-08-25T13:40:49.083Z,33.27
2022-08-25T13:43:17.346Z,33.14
2022-08-25T13:45:50.428Z,33.14
2022-08-25T13:48:33.078Z,33.02
2022-08-25T13:51:21.511Z,32.83
2022-08-25T13:54:08.588Z,32.95
2022-08-25T13:56:42.092Z,32.98
2022-08-25T13:59:40.037Z,32.99
2022-08-25T14:02:15.282Z,32.94
2022-08-25T14:04:51.156Z,32.90
2022-08-25T14:07:22.862Z,32.79
2022-08-25T14:09:58.748Z,32.81
2022-08-25T14:12:35.714Z,32.88
2022-08-25T14:15:26.556Z,32.89
2022-08-25T14:18:29.767Z,32.87
2022-08-25T14:20:58.785Z,32.76
2022-08-25T14:23:30.678Z,32.62
2022-08-25T14:25:59.443Z,32.57
2022-08-25T14:28:30.432Z,32.63
2022-08-25T14:31:27.730Z,32.55
2022-08-25T14:34:03.346Z,32.51
2022-08-25T14:36:33.139Z,32.43
2022-08-25T14:39:05.889Z,32.49
2022-08-25T14:41:38.873Z,32.46
2022-08-25T14:44:07.965Z,32.39
2022-08-25T14:46:45.702Z,32.31
2022-08-25T14:49:24.917Z,32.32
2022-08-25T14:51:53.463Z,32.30
2022-08-25T14:54:26.621Z,32.15
2022-08-25T14:56:55.966Z,32.12
2022-08-25T14:59:23.872Z,32.24
2022-08-25T15:01:51.710Z,32.05
2022-08-25T15:04:29.056Z,32.00
2022-08-25T15:07:00.106Z,31.88
2022-08-25T15:09:33.666Z,31.83
2022-08-25T15:12:01.835Z,31.72
2022-08-25T15:14:33.332Z,31.77
2022-08-25T15:17:03.392Z,31.53
2022-08-25T15:19:31.446Z,31.48
2022-08-25T15:21:59.243Z,31.46
2022-08-25T15:24:28.410Z,31.45
2022-08-25T15:26:59.159Z,31.42
2022-08-25T15:29:30.105Z,31.33
2022-08-25T15:32:00.394Z,31.28
2022-08-25T15:34:28.927Z,31.21
2022-08-25T15:37:07.135Z,31.06
2022-08-25T15:39:35.904Z,31.09
2022-08-25T15:42:05.361Z,30.99
2022-08-25T15:44:33.896Z,30.97
2022-08-25T15:47:04.167Z,30.88
2022-08-25T15:49:33.550Z,30.74
2022-08-25T15:52:01.595Z,30.66
2022-08-25T15:54:31.402Z,30.62
2022-08-25T15:56:59.843Z,30.58
2022-08-25T15:59:28.384Z,30.60
2022-08-25T16:01:56.905Z,30.47
2022-08-25T16:04:27.704Z,30.39
2022-08-25T16:06:56.008Z,30.31
2022-08-25T16:09:24.136Z,30.18
2022-08-25T16:11:56.094Z,30.14
2022-08-25T16:14:26.218Z,30.01
2022-08-25T16:16:58.227Z,29.93
2022-08-25T16:19:27.870Z,29.92
2022-08-25T16:21:56.340Z,29.85
2022-08-25T16:24:24.308Z,29.82
2022-08-25T16:26:52.617Z,29.68
2022-08-25T16:29:23.462Z,29.62
2022-08-25T16:31:53.309Z,29.48
2022-08-25T16:34:24.409Z,29.37
2022-08-25T16:36:53.922Z,29.27
2022-08-25T16:39:22.458Z,29.14
2022-08-25T16:41:52.598Z,29.08
2022-08-25T16:44:22.629Z,29.03
2022-08-25T16:46:54.317Z,28.93
2022-08-25T16:49:24.356Z,28.87
2022-08-25T16:51:56.654Z,28.69
2022-08-25T16:54:45.291Z,28.53
2022-08-25T16:57:13.571Z,28.48
2022-08-25T16:59:42.595Z,28.39
2022-08-25T17:02:12.139Z,28.22
2022-08-25T17:04:40.783Z,28.14
2022-08-25T17:07:08.972Z,28.11
2022-08-25T17:09:37.200Z,27.87
2022-08-25T17:12:05.094Z,27.83
2022-08-25T17:14:33.845Z,27.65
2022-08-25T17:17:02.553Z,27.55
2022-08-25T17:19:31.998Z,27.45
2022-08-25T17:22:00.033Z,27.36
2022-08-25T17:24:29.373Z,27.23
2022-08-25T17:27:00.173Z,27.08
2022-08-25T17:29:29.735Z,26.99
2022-08-25T17:31:58.601Z,26.72
2022-08-25T17:34:29.090Z,26.60
2022-08-25T17:36:58.543Z,26.43
2022-08-25T17:39:27.607Z,26.16
2022-08-25T17:41:56.487Z,25.95
2022-08-25T17:44:24.569Z,25.84
2022-08-25T17:46:52.670Z,25.69
2022-08-25T17:49:20.383Z,25.55
2022-08-25T17:51:48.648Z,25.33
2022-08-25T17:54:17.259Z,25.09
2022-08-25T17:56:44.984Z,24.92
2022-08-25T17:59:13.874Z,24.72
2022-08-25T18:01:42.066Z,24.55
2022-08-25T18:04:17.382Z,24.37
2022-08-25T18:06:48.431Z,24.25
2022-08-25T18:09:17.542Z,24.18
2022-08-25T18:11:46.224Z,24.15
2022-08-25T18:14:16.540Z,24.03
2022-08-25T18:16:45.212Z,23.93
2022-08-25T18:19:14.457Z,23.80
2022-08-25T18:21:43.345Z,23.70
2022-08-25T18:24:11.902Z,23.55
2022-08-25T18:26:41.679Z,23.44
2022-08-25T18:29:13.070Z,23.36
2022-08-25T18:31:42.437Z,23.25
2022-08-25T18:34:11.592Z,23.20
2022-08-25T18:36:40.415Z,22.99
2022-08-25T18:39:30.455Z,22.93
2022-08-25T18:42:01.699Z,22.79
2022-08-25T18:44:29.801Z,22.75
2022-08-25T18:46:57.998Z,22.71
2022-08-25T18:49:26.748Z,22.65
2022-08-25T18:51:56.382Z,22.58
2022-08-25T18:54:24.184Z,22.55
2022-08-25T18:56:53.957Z,22.54
2022-08-25T18:59:23.539Z,22.50
2022-08-25T19:01:53.906Z,22.37
2022-08-25T19:04:28.335Z,22.34
2022-08-25T19:07:00.367Z,22.28
2022-08-25T19:09:28.598Z,22.20
2022-08-25T19:11:57.309Z,22.11
2022-08-25T19:14:26.310Z,22.07
2022-08-25T19:16:54.966Z,22.01
2022-08-25T19:19:24.193Z,21.97
2022-08-25T19:21:52.109Z,21.85
2022-08-25T19:24:20.034Z,21.77
2022-08-25T19:26:53.806Z,21.68
2022-08-25T19:29:23.391Z,21.62
2022-08-25T19:31:52.060Z,21.68
2022-08-25T19:34:28.011Z,21.68
2022-08-25T19:37:01.408Z,21.60
2022-08-25T19:39:30.678Z,21.48
2022-08-25T19:41:58.657Z,21.46
2022-08-25T19:44:28.067Z,21.33
2022-08-25T19:46:56.391Z,21.23
2022-08-25T19:49:34.326Z,21.20
2022-08-25T19:52:10.662Z,21.16
2022-08-25T19:54:45.773Z,21.09
2022-08-25T19:57:28.467Z,21.03
2022-08-25T20:00:06.763Z,20.91
2022-08-25T20:02:40.463Z,20.89
2022-08-25T20:05:08.374Z,20.90
2022-08-25T20:07:36.354Z,20.81
2022-08-25T20:10:08.334Z,20.81
2022-08-25T20:12:44.697Z,20.82
2022-08-25T20:15:14.587Z,20.75
2022-08-25T20:17:45.162Z,20.68
2022-08-25T20:20:16.493Z,20.62
2022-08-25T20:22:44.543Z,20.62
2022-08-25T20:25:16.437Z,20.58
2022-08-25T20:27:48.603Z,20.56
2022-08-25T20:30:29.453Z,20.51
2022-08-25T20:32:58.165Z,20.45
2022-08-25T20:35:28.206Z,20.42
2022-08-25T20:37:58.307Z,20.41
2022-08-25T20:40:28.640Z,20.31
2022-08-25T20:43:04.377Z,20.27
2022-08-25T20:45:32.306Z,20.21
2022-08-25T20:48:00.319Z,20.20
2022-08-25T20:50:28.714Z,20.08
2022-08-25T20:52:58.694Z,20.01
2022-08-25T20:55:27.785Z,19.99
2022-08-25T20:57:56.142Z,19.91
2022-08-25T21:00:24.986Z,19.89
2022-08-25T21:02:53.404Z,19.87
2022-08-25T21:05:21.494Z,19.87
2022-08-25T21:07:49.402Z,19.73
2022-08-25T21:10:17.263Z,19.70
2022-08-25T21:12:45.272Z,19.66
2022-08-25T21:15:18.041Z,19.69
2022-08-25T21:17:50.592Z,19.64
2022-08-25T21:20:18.693Z,19.57
2022-08-25T21:22:46.430Z,19.59
2022-08-25T21:25:14.627Z,19.59
2022-08-25T21:27:43.457Z,19.55
2022-08-25T21:30:12.209Z,19.57
2022-08-25T21:32:39.874Z,19.62
2022-08-25T21:35:22.689Z,19.59
2022-08-25T21:37:53.371Z,19.53
2022-08-25T21:40:22.776Z,19.51
2022-08-25T21:42:51.978Z,19.47
2022-08-25T21:45:20.933Z,19.42
2022-08-25T21:47:50.071Z,19.41
2022-08-25T21:50:19.828Z,19.40
2022-08-25T21:52:47.529Z,19.45
2022-08-25T21:55:23.150Z,19.46
2022-08-25T21:57:51.421Z,19.46
2022-08-25T22:00:19.310Z,19.42
2022-08-25T22:02:49.634Z,19.38
2022-08-25T22:05:17.332Z,19.42
2022-08-25T22:07:45.119Z,19.38
2022-08-25T22:10:17.783Z,19.33
2022-08-25T22:12:48.657Z,19.36
2022-08-25T22:15:18.077Z,19.42
2022-08-25T22:17:47.896Z,19.39
2022-08-25T22:20:17.522Z,19.29
2022-08-25T22:22:45.390Z,19.24
2022-08-25T22:25:13.888Z,19.25
2022-08-25T22:27:42.443Z,19.36
2022-08-25T22:30:10.964Z,19.25
2022-08-25T22:32:38.616Z,19.19
2022-08-25T22:35:07.142Z,19.15
2022-08-25T22:37:36.189Z,19.11
2022-08-25T22:40:05.254Z,19.11
2022-08-25T22:42:33.011Z,18.99
2022-08-25T22:45:01.237Z,19.02
2022-08-25T22:47:29.058Z,18.91
2022-08-25T22:49:58.794Z,18.85
2022-08-25T22:52:33.321Z,18.74
2022-08-25T22:55:02.812Z,18.68
2022-08-25T22:57:30.773Z,18.62
2022-08-25T22:59:59.303Z,18.62
2022-08-25T23:02:27.689Z,18.56
2022-08-25T23:05:00.833Z,18.54
2022-08-25T23:07:29.122Z,18.48
2022-08-25T23:09:58.727Z,18.45
2022-08-25T23:12:26.623Z,18.40
2022-08-25T23:14:54.617Z,18.39
2022-08-25T23:17:22.547Z,18.34
2022-08-25T23:19:50.456Z,18.25
2022-08-25T23:22:18.264Z,18.18
2022-08-25T23:24:52.089Z,18.15
2022-08-25T23:27:22.180Z,18.16
2022-08-25T23:29:50.565Z,18.19
2022-08-25T23:32:18.853Z,18.13
2022-08-25T23:34:47.399Z,18.12
2022-08-25T23:37:18.473Z,18.02
2022-08-25T23:39:49.864Z,18.00
2022-08-25T23:42:20.096Z,17.92
2022-08-25T23:44:49.369Z,17.91
2022-08-25T23:47:17.763Z,17.90
2022-08-25T23:49:48.028Z,17.89
2022-08-25T23:52:17.444Z,18.04
2022-08-25T23:54:46.465Z,17.99
2022-08-25T23:57:14.848Z,17.94
2022-08-25T23:59:43.343Z,17.84
